sensor_id;sensor_type;location;lat;lon;timestamp;temperature;humidity
6407;DHT22;3236;51.022;6.818;2023-07-20T00:00:00;16.30;99.90
6407;DHT22;3236;51.022;6.818;2023-07-20T00:02:27;16.40;99.90
6407;DHT22;3236;51.022;6.818;2023-07-20T00:07:22;16.40;99.90
6407;DHT22;3236;51.022;6.818;2023-07-20T00:09:50;16.30;99.90
6407;DHT22;3236;51.022;6.818;2023-07-20T00:12:17;16.30;99.90
6407;DHT22;3236;51.022;6.818;2023-07-20T00:14:44;16.90;99.90
6407;DHT22;3236;51.022;6.818;2023-07-20T00:17:13;16.50;99.90
6407;DHT22;3236;51.022;6.818;2023-07-20T00:19:40;16.60;99.90
6407;DHT22;3236;51.022;6.818;2023-07-20T00:22:07;16.50;99.90
6407;DHT22;3236;51.022;6.818;2023-07-20T00:24:40;16.40;99.90
6407;DHT22;3236;51.022;6.818;2023-07-20T00:27:10;16.70;99.90
6407;DHT22;3236;51.022;6.818;2023-07-20T00:32:06;17.10;99.90
6407;DHT22;3236;51.022;6.818;2023-07-20T00:34:35;16.80;99.90
6407;DHT22;3236;51.022;6.818;2023-07-20T00:37:04;16.80;99.90
6407;DHT22;3236;51.022;6.818;2023-07-20T00:39:31;16.40;99.90
6407;DHT22;3236;51.022;6.818;2023-07-20T00:46:53;16.40;99.90
6407;DHT22;3236;51.022;6.818;2023-07-20T00:51:49;16.60;99.90
6407;DHT22;3236;51.022;6.818;2023-07-20T00:54:17;16.60;99.90
6407;DHT22;3236;51.022;6.818;2023-07-20T00:56:45;16.90;99.90
6407;DHT22;3236;51.022;6.818;2023-07-20T00:59:13;15.90;99.90
6407;DHT22;3236;51.022;6.818;2023-07-20T01:06:44;16.80;99.90
6407;DHT22;3236;51.022;6.818;2023-07-20T01:09:19;16.80;99.90
6407;DHT22;3236;51.022;6.818;2023-07-20T01:11:57;16.90;99.90
6407;DHT22;3236;51.022;6.818;2023-07-20T01:14:25;17.20;99.90
6407;DHT22;3236;51.022;6.818;2023-07-20T01:16:52;16.80;99.90
6407;DHT22;3236;51.022;6.818;2023-07-20T01:19:20;16.50;99.90
6407;DHT22;3236;51.022;6.818;2023-07-20T01:21:56;16.40;99.90
6407;DHT22;3236;51.022;6.818;2023-07-20T01:25:07;16.80;99.90
6407;DHT22;3236;51.022;6.818;2023-07-20T01:28:14;16.60;99.90
6407;DHT22;3236;51.022;6.818;2023-07-20T01:30:52;16.90;99.90
6407;DHT22;3236;51.022;6.818;2023-07-20T01:33:24;17.60;99.90
6407;DHT22;3236;51.022;6.818;2023-07-20T01:35:55;16.90;99.90
6407;DHT22;3236;51.022;6.818;2023-07-20T01:38:24;16.90;99.90
6407;DHT22;3236;51.022;6.818;2023-07-20T01:40:54;17.30;99.90
6407;DHT22;3236;51.022;6.818;2023-07-20T01:43:27;16.90;99.90
6407;DHT22;3236;51.022;6.818;2023-07-20T01:45:54;16.70;99.90
6407;DHT22;3236;51.022;6.818;2023-07-20T01:48:23;16.90;99.90
6407;DHT22;3236;51.022;6.818;2023-07-20T01:53:19;16.90;99.90
6407;DHT22;3236;51.022;6.818;2023-07-20T01:55:46;16.60;99.90
6407;DHT22;3236;51.022;6.818;2023-07-20T02:05:44;16.50;99.90
6407;DHT22;3236;51.022;6.818;2023-07-20T02:08:11;16.40;99.90
6407;DHT22;3236;51.022;6.818;2023-07-20T02:10:38;16.60;99.90
6407;DHT22;3236;51.022;6.818;2023-07-20T02:15:33;16.20;99.90
6407;DHT22;3236;51.022;6.818;2023-07-20T02:20:32;16.20;99.90
6407;DHT22;3236;51.022;6.818;2023-07-20T02:23:00;16.40;99.90
6407;DHT22;3236;51.022;6.818;2023-07-20T02:35:18;16.10;99.90
6407;DHT22;3236;51.022;6.818;2023-07-20T02:40:14;16.10;99.90
6407;DHT22;3236;51.022;6.818;2023-07-20T02:42:42;15.90;99.90
6407;DHT22;3236;51.022;6.818;2023-07-20T02:45:09;16.40;99.90
6407;DHT22;3236;51.022;6.818;2023-07-20T02:47:42;16.40;99.90
6407;DHT22;3236;51.022;6.818;2023-07-20T02:50:09;16.00;99.90
6407;DHT22;3236;51.022;6.818;2023-07-20T02:52:45;16.00;99.90
6407;DHT22;3236;51.022;6.818;2023-07-20T02:57:41;15.80;99.90
6407;DHT22;3236;51.022;6.818;2023-07-20T03:00:09;16.00;99.90
6407;DHT22;3236;51.022;6.818;2023-07-20T03:02:40;16.10;99.90
6407;DHT22;3236;51.022;6.818;2023-07-20T03:05:08;16.30;99.90
6407;DHT22;3236;51.022;6.818;2023-07-20T03:07:35;16.20;99.90
6407;DHT22;3236;51.022;6.818;2023-07-20T03:12:30;16.30;99.90
6407;DHT22;3236;51.022;6.818;2023-07-20T03:15:00;16.00;99.90
6407;DHT22;3236;51.022;6.818;2023-07-20T03:22:22;15.70;99.90
6407;DHT22;3236;51.022;6.818;2023-07-20T03:24:50;16.30;99.90
6407;DHT22;3236;51.022;6.818;2023-07-20T03:39:40;15.70;99.90
6407;DHT22;3236;51.022;6.818;2023-07-20T03:47:01;15.70;99.90
6407;DHT22;3236;51.022;6.818;2023-07-20T03:49:33;16.10;99.90
6407;DHT22;3236;51.022;6.818;2023-07-20T03:52:03;15.80;99.90
6407;DHT22;3236;51.022;6.818;2023-07-20T04:01:59;16.10;99.90
6407;DHT22;3236;51.022;6.818;2023-07-20T04:04:26;16.30;99.90
6407;DHT22;3236;51.022;6.818;2023-07-20T04:06:54;16.10;99.90
6407;DHT22;3236;51.022;6.818;2023-07-20T04:09:21;16.40;99.90
6407;DHT22;3236;51.022;6.818;2023-07-20T04:14:18;16.20;99.90
6407;DHT22;3236;51.022;6.818;2023-07-20T04:16:46;16.20;99.90
6407;DHT22;3236;51.022;6.818;2023-07-20T04:19:14;16.60;99.90
6407;DHT22;3236;51.022;6.818;2023-07-20T04:21:41;16.30;99.90
6407;DHT22;3236;51.022;6.818;2023-07-20T04:24:10;16.50;99.90
6407;DHT22;3236;51.022;6.818;2023-07-20T04:36:28;16.80;99.90
6407;DHT22;3236;51.022;6.818;2023-07-20T04:41:24;16.40;99.90
6407;DHT22;3236;51.022;6.818;2023-07-20T04:46:19;16.00;99.90
6407;DHT22;3236;51.022;6.818;2023-07-20T04:48:47;16.50;99.90
6407;DHT22;3236;51.022;6.818;2023-07-20T04:51:14;16.40;99.90
6407;DHT22;3236;51.022;6.818;2023-07-20T04:58:39;16.50;99.90
6407;DHT22;3236;51.022;6.818;2023-07-20T05:03:34;16.80;99.90
6407;DHT22;3236;51.022;6.818;2023-07-20T05:06:04;16.50;99.90
6407;DHT22;3236;51.022;6.818;2023-07-20T05:10:59;16.50;99.90
6407;DHT22;3236;51.022;6.818;2023-07-20T05:13:26;16.40;99.90
6407;DHT22;3236;51.022;6.818;2023-07-20T05:15:55;16.30;99.90
6407;DHT22;3236;51.022;6.818;2023-07-20T05:18:23;16.60;99.90
6407;DHT22;3236;51.022;6.818;2023-07-20T05:20:50;17.00;99.90
6407;DHT22;3236;51.022;6.818;2023-07-20T05:23:18;16.70;99.90
6407;DHT22;3236;51.022;6.818;2023-07-20T05:30:41;16.90;99.90
6407;DHT22;3236;51.022;6.818;2023-07-20T05:33:15;16.50;99.90
6407;DHT22;3236;51.022;6.818;2023-07-20T05:35:42;16.60;99.90
6407;DHT22;3236;51.022;6.818;2023-07-20T05:38:09;16.60;99.90
6407;DHT22;3236;51.022;6.818;2023-07-20T05:40:37;16.90;99.90
6407;DHT22;3236;51.022;6.818;2023-07-20T05:43:06;16.90;99.90
6407;DHT22;3236;51.022;6.818;2023-07-20T05:50:29;17.00;99.90
6407;DHT22;3236;51.022;6.818;2023-07-20T05:52:56;16.90;99.90
6407;DHT22;3236;51.022;6.818;2023-07-20T05:57:50;17.30;99.90
6407;DHT22;3236;51.022;6.818;2023-07-20T06:00:18;17.40;99.90
6407;DHT22;3236;51.022;6.818;2023-07-20T06:05:21;17.50;99.90
6407;DHT22;3236;51.022;6.818;2023-07-20T06:07:50;17.90;99.90
6407;DHT22;3236;51.022;6.818;2023-07-20T06:10:20;17.50;99.90
6407;DHT22;3236;51.022;6.818;2023-07-20T06:15:25;17.80;99.90
6407;DHT22;3236;51.022;6.818;2023-07-20T06:17:54;17.50;99.90
6407;DHT22;3236;51.022;6.818;2023-07-20T06:20:22;17.70;99.90
6407;DHT22;3236;51.022;6.818;2023-07-20T06:22:50;18.00;99.90
6407;DHT22;3236;51.022;6.818;2023-07-20T06:25:17;17.70;99.90
6407;DHT22;3236;51.022;6.818;2023-07-20T06:27:49;18.30;99.90
6407;DHT22;3236;51.022;6.818;2023-07-20T06:30:18;18.20;99.90
6407;DHT22;3236;51.022;6.818;2023-07-20T06:35:12;19.00;99.90
6407;DHT22;3236;51.022;6.818;2023-07-20T06:40:09;18.70;99.90
6407;DHT22;3236;51.022;6.818;2023-07-20T06:45:04;18.30;99.90
6407;DHT22;3236;51.022;6.818;2023-07-20T06:47:31;18.00;99.90
6407;DHT22;3236;51.022;6.818;2023-07-20T06:49:58;18.40;99.90
6407;DHT22;3236;51.022;6.818;2023-07-20T06:54:53;18.30;99.90
6407;DHT22;3236;51.022;6.818;2023-07-20T06:57:21;18.30;99.90
6407;DHT22;3236;51.022;6.818;2023-07-20T06:59:48;18.30;99.90
6407;DHT22;3236;51.022;6.818;2023-07-20T07:04:43;19.50;99.90
6407;DHT22;3236;51.022;6.818;2023-07-20T07:12:06;19.20;99.90
6407;DHT22;3236;51.022;6.818;2023-07-20T07:14:38;19.80;99.90
6407;DHT22;3236;51.022;6.818;2023-07-20T07:17:05;19.40;99.90
6407;DHT22;3236;51.022;6.818;2023-07-20T07:19:32;19.80;99.90
6407;DHT22;3236;51.022;6.818;2023-07-20T07:21:59;19.70;99.90
6407;DHT22;3236;51.022;6.818;2023-07-20T07:24:26;18.80;99.90
6407;DHT22;3236;51.022;6.818;2023-07-20T07:26:59;18.80;99.90
6407;DHT22;3236;51.022;6.818;2023-07-20T07:29:29;18.30;99.90
6407;DHT22;3236;51.022;6.818;2023-07-20T07:31:58;17.70;99.90
6407;DHT22;3236;51.022;6.818;2023-07-20T07:34:25;18.50;99.90
6407;DHT22;3236;51.022;6.818;2023-07-20T07:36:52;18.80;99.90
6407;DHT22;3236;51.022;6.818;2023-07-20T07:41:47;19.20;99.90
6407;DHT22;3236;51.022;6.818;2023-07-20T07:44:14;19.80;99.90
6407;DHT22;3236;51.022;6.818;2023-07-20T07:49:10;20.60;99.90
6407;DHT22;3236;51.022;6.818;2023-07-20T07:51:37;20.60;99.90
6407;DHT22;3236;51.022;6.818;2023-07-20T07:54:04;19.70;99.90
6407;DHT22;3236;51.022;6.818;2023-07-20T07:58:58;19.50;99.90
6407;DHT22;3236;51.022;6.818;2023-07-20T08:03:53;19.90;99.90
6407;DHT22;3236;51.022;6.818;2023-07-20T08:06:21;20.40;99.90
6407;DHT22;3236;51.022;6.818;2023-07-20T08:08:49;20.40;99.90
6407;DHT22;3236;51.022;6.818;2023-07-20T08:11:16;20.60;99.90
6407;DHT22;3236;51.022;6.818;2023-07-20T08:13:44;20.70;99.90
6407;DHT22;3236;51.022;6.818;2023-07-20T08:16:11;20.90;99.90
6407;DHT22;3236;51.022;6.818;2023-07-20T08:23:34;21.10;99.90
6407;DHT22;3236;51.022;6.818;2023-07-20T08:40:51;21.20;99.90
6407;DHT22;3236;51.022;6.818;2023-07-20T08:43:20;21.70;99.90
6407;DHT22;3236;51.022;6.818;2023-07-20T08:45:51;21.50;99.90
6407;DHT22;3236;51.022;6.818;2023-07-20T08:48:19;21.00;99.90
6407;DHT22;3236;51.022;6.818;2023-07-20T08:50:48;21.70;99.90
6407;DHT22;3236;51.022;6.818;2023-07-20T08:58:20;20.20;99.90
6407;DHT22;3236;51.022;6.818;2023-07-20T09:05:44;20.60;99.90
6407;DHT22;3236;51.022;6.818;2023-07-20T09:15:35;21.40;98.30
6407;DHT22;3236;51.022;6.818;2023-07-20T09:18:02;21.40;99.20
6407;DHT22;3236;51.022;6.818;2023-07-20T09:20:32;21.20;98.90
6407;DHT22;3236;51.022;6.818;2023-07-20T09:23:00;21.70;99.30
6407;DHT22;3236;51.022;6.818;2023-07-20T09:25:30;21.80;98.20
6407;DHT22;3236;51.022;6.818;2023-07-20T09:28:02;22.90;98.00
6407;DHT22;3236;51.022;6.818;2023-07-20T09:30:30;22.60;97.50
6407;DHT22;3236;51.022;6.818;2023-07-20T09:32:58;22.30;96.30
6407;DHT22;3236;51.022;6.818;2023-07-20T09:37:57;22.50;96.60
6407;DHT22;3236;51.022;6.818;2023-07-20T09:40:25;23.30;93.20
6407;DHT22;3236;51.022;6.818;2023-07-20T09:42:56;22.20;96.80
6407;DHT22;3236;51.022;6.818;2023-07-20T09:45:31;22.30;97.20
6407;DHT22;3236;51.022;6.818;2023-07-20T09:48:05;21.80;97.80
6407;DHT22;3236;51.022;6.818;2023-07-20T09:53:00;21.70;97.90
6407;DHT22;3236;51.022;6.818;2023-07-20T09:56:03;21.80;95.40
6407;DHT22;3236;51.022;6.818;2023-07-20T09:58:31;21.70;94.70
6407;DHT22;3236;51.022;6.818;2023-07-20T10:01:07;22.50;92.20
6407;DHT22;3236;51.022;6.818;2023-07-20T10:03:39;22.70;91.00
6407;DHT22;3236;51.022;6.818;2023-07-20T10:06:10;22.40;90.70
6407;DHT22;3236;51.022;6.818;2023-07-20T10:08:39;23.00;89.60
6407;DHT22;3236;51.022;6.818;2023-07-20T10:11:08;22.50;91.00
6407;DHT22;3236;51.022;6.818;2023-07-20T10:13:38;22.10;92.80
6407;DHT22;3236;51.022;6.818;2023-07-20T10:16:09;22.20;94.60
6407;DHT22;3236;51.022;6.818;2023-07-20T10:18:43;22.10;95.00
6407;DHT22;3236;51.022;6.818;2023-07-20T10:23:44;22.50;93.40
6407;DHT22;3236;51.022;6.818;2023-07-20T10:26:12;23.30;92.60
6407;DHT22;3236;51.022;6.818;2023-07-20T10:28:40;22.60;91.30
6407;DHT22;3236;51.022;6.818;2023-07-20T10:31:08;22.90;91.00
6407;DHT22;3236;51.022;6.818;2023-07-20T10:33:37;22.80;90.90
6407;DHT22;3236;51.022;6.818;2023-07-20T10:36:05;22.70;90.40
6407;DHT22;3236;51.022;6.818;2023-07-20T10:38:39;23.00;88.10
6407;DHT22;3236;51.022;6.818;2023-07-20T10:41:16;22.40;88.60
6407;DHT22;3236;51.022;6.818;2023-07-20T10:43:44;23.00;90.10
6407;DHT22;3236;51.022;6.818;2023-07-20T10:46:14;22.90;90.10
6407;DHT22;3236;51.022;6.818;2023-07-20T10:49:01;23.50;88.50
6407;DHT22;3236;51.022;6.818;2023-07-20T10:51:30;23.30;84.40
6407;DHT22;3236;51.022;6.818;2023-07-20T10:54:08;24.30;83.20
6407;DHT22;3236;51.022;6.818;2023-07-20T10:56:35;23.50;79.60
6407;DHT22;3236;51.022;6.818;2023-07-20T10:59:17;23.90;83.00
6407;DHT22;3236;51.022;6.818;2023-07-20T11:01:46;24.80;76.60
6407;DHT22;3236;51.022;6.818;2023-07-20T11:04:15;25.30;71.30
6407;DHT22;3236;51.022;6.818;2023-07-20T11:09:14;23.60;64.50
6407;DHT22;3236;51.022;6.818;2023-07-20T11:11:43;24.60;70.10
6407;DHT22;3236;51.022;6.818;2023-07-20T11:14:11;23.90;65.90
6407;DHT22;3236;51.022;6.818;2023-07-20T11:16:48;24.70;69.80
6407;DHT22;3236;51.022;6.818;2023-07-20T11:19:17;24.90;63.70
6407;DHT22;3236;51.022;6.818;2023-07-20T11:21:51;24.90;61.60
6407;DHT22;3236;51.022;6.818;2023-07-20T11:24:18;25.20;64.00
6407;DHT22;3236;51.022;6.818;2023-07-20T11:26:46;25.50;60.40
6407;DHT22;3236;51.022;6.818;2023-07-20T11:29:15;24.60;61.50
6407;DHT22;3236;51.022;6.818;2023-07-20T11:31:43;24.70;61.80
6407;DHT22;3236;51.022;6.818;2023-07-20T11:34:11;24.70;63.00
6407;DHT22;3236;51.022;6.818;2023-07-20T11:36:40;24.60;60.00
6407;DHT22;3236;51.022;6.818;2023-07-20T11:39:10;24.20;61.80
6407;DHT22;3236;51.022;6.818;2023-07-20T11:41:37;23.60;64.60
6407;DHT22;3236;51.022;6.818;2023-07-20T11:44:05;23.60;69.40
6407;DHT22;3236;51.022;6.818;2023-07-20T11:46:36;23.90;72.40
6407;DHT22;3236;51.022;6.818;2023-07-20T11:49:03;24.20;71.90
6407;DHT22;3236;51.022;6.818;2023-07-20T11:53:58;24.50;66.00
6407;DHT22;3236;51.022;6.818;2023-07-20T11:56:27;24.30;65.70
6407;DHT22;3236;51.022;6.818;2023-07-20T11:59:01;23.60;65.30
6407;DHT22;3236;51.022;6.818;2023-07-20T12:01:30;23.40;67.80
6407;DHT22;3236;51.022;6.818;2023-07-20T12:06:28;22.60;72.10
6407;DHT22;3236;51.022;6.818;2023-07-20T12:08:57;22.90;76.00
6407;DHT22;3236;51.022;6.818;2023-07-20T12:11:34;22.80;76.90
6407;DHT22;3236;51.022;6.818;2023-07-20T12:14:02;22.80;76.00
6407;DHT22;3236;51.022;6.818;2023-07-20T12:16:30;23.30;75.40
6407;DHT22;3236;51.022;6.818;2023-07-20T12:19:01;23.60;70.10
6407;DHT22;3236;51.022;6.818;2023-07-20T12:21:28;24.30;69.20
6407;DHT22;3236;51.022;6.818;2023-07-20T12:23:58;24.10;68.00
6407;DHT22;3236;51.022;6.818;2023-07-20T12:28:55;24.50;66.70
6407;DHT22;3236;51.022;6.818;2023-07-20T12:31:22;24.90;63.80
6407;DHT22;3236;51.022;6.818;2023-07-20T12:33:50;24.70;59.80
6407;DHT22;3236;51.022;6.818;2023-07-20T12:36:18;24.10;59.60
6407;DHT22;3236;51.022;6.818;2023-07-20T12:38:45;23.50;62.70
6407;DHT22;3236;51.022;6.818;2023-07-20T12:41:12;23.50;64.10
6407;DHT22;3236;51.022;6.818;2023-07-20T12:43:46;23.70;66.50
6407;DHT22;3236;51.022;6.818;2023-07-20T12:46:15;23.30;67.60
6407;DHT22;3236;51.022;6.818;2023-07-20T12:48:42;22.70;67.30
6407;DHT22;3236;51.022;6.818;2023-07-20T12:51:09;22.10;69.70
6407;DHT22;3236;51.022;6.818;2023-07-20T13:03:32;23.10;71.50
6407;DHT22;3236;51.022;6.818;2023-07-20T13:06:00;23.30;68.20
6407;DHT22;3236;51.022;6.818;2023-07-20T13:08:27;23.20;66.50
6407;DHT22;3236;51.022;6.818;2023-07-20T13:13:21;23.10;65.30
6407;DHT22;3236;51.022;6.818;2023-07-20T13:20:45;23.10;65.60
6407;DHT22;3236;51.022;6.818;2023-07-20T13:23:13;23.50;67.40
6407;DHT22;3236;51.022;6.818;2023-07-20T13:25:40;23.10;66.00
6407;DHT22;3236;51.022;6.818;2023-07-20T13:28:09;23.00;68.40
6407;DHT22;3236;51.022;6.818;2023-07-20T13:30:36;23.00;64.80
6407;DHT22;3236;51.022;6.818;2023-07-20T13:33:03;23.70;64.10
6407;DHT22;3236;51.022;6.818;2023-07-20T13:35:30;24.30;63.30
6407;DHT22;3236;51.022;6.818;2023-07-20T13:37:59;23.50;60.10
6407;DHT22;3236;51.022;6.818;2023-07-20T13:42:53;24.80;60.70
6407;DHT22;3236;51.022;6.818;2023-07-20T13:47:47;25.70;56.00
6407;DHT22;3236;51.022;6.818;2023-07-20T13:50:23;25.30;51.80
6407;DHT22;3236;51.022;6.818;2023-07-20T13:52:54;26.40;50.50
6407;DHT22;3236;51.022;6.818;2023-07-20T13:55:22;26.30;44.60
6407;DHT22;3236;51.022;6.818;2023-07-20T13:57:51;25.70;43.90
6407;DHT22;3236;51.022;6.818;2023-07-20T14:00:19;26.80;49.50
6407;DHT22;3236;51.022;6.818;2023-07-20T14:02:46;27.70;46.60
6407;DHT22;3236;51.022;6.818;2023-07-20T14:05:13;27.10;37.10
6407;DHT22;3236;51.022;6.818;2023-07-20T14:07:41;27.90;35.60
6407;DHT22;3236;51.022;6.818;2023-07-20T14:15:09;29.40;26.10
6407;DHT22;3236;51.022;6.818;2023-07-20T14:17:36;29.00;23.90
6407;DHT22;3236;51.022;6.818;2023-07-20T14:20:04;29.10;25.10
6407;DHT22;3236;51.022;6.818;2023-07-20T14:22:31;30.70;24.30
6407;DHT22;3236;51.022;6.818;2023-07-20T14:24:58;31.30;21.00
6407;DHT22;3236;51.022;6.818;2023-07-20T14:27:26;28.90;17.50
6407;DHT22;3236;51.022;6.818;2023-07-20T14:32:21;27.00;24.70
6407;DHT22;3236;51.022;6.818;2023-07-20T14:34:48;27.00;27.20
6407;DHT22;3236;51.022;6.818;2023-07-20T14:37:16;26.70;30.30
6407;DHT22;3236;51.022;6.818;2023-07-20T14:44:39;28.70;28.80
6407;DHT22;3236;51.022;6.818;2023-07-20T14:47:08;30.00;24.10
6407;DHT22;3236;51.022;6.818;2023-07-20T14:49:38;31.00;19.90
6407;DHT22;3236;51.022;6.818;2023-07-20T14:52:08;31.00;16.90
6407;DHT22;3236;51.022;6.818;2023-07-20T14:54:35;31.10;17.00
6407;DHT22;3236;51.022;6.818;2023-07-20T14:57:02;31.20;16.00
6407;DHT22;3236;51.022;6.818;2023-07-20T15:01:57;31.00;14.20
6407;DHT22;3236;51.022;6.818;2023-07-20T15:04:26;31.20;13.50
6407;DHT22;3236;51.022;6.818;2023-07-20T15:06:53;30.90;12.40
6407;DHT22;3236;51.022;6.818;2023-07-20T15:09:20;30.60;12.90
6407;DHT22;3236;51.022;6.818;2023-07-20T15:11:47;31.10;12.40
6407;DHT22;3236;51.022;6.818;2023-07-20T15:14:14;30.80;11.30
6407;DHT22;3236;51.022;6.818;2023-07-20T15:16:41;29.60;14.50
6407;DHT22;3236;51.022;6.818;2023-07-20T15:19:09;28.30;18.10
6407;DHT22;3236;51.022;6.818;2023-07-20T15:21:40;27.60;20.60
6407;DHT22;3236;51.022;6.818;2023-07-20T15:29:04;29.50;21.70
6407;DHT22;3236;51.022;6.818;2023-07-20T15:33:59;29.70;19.30
6407;DHT22;3236;51.022;6.818;2023-07-20T15:38:54;30.80;16.80
6407;DHT22;3236;51.022;6.818;2023-07-20T15:41:21;31.20;14.90
6407;DHT22;3236;51.022;6.818;2023-07-20T15:43:48;31.70;12.00
6407;DHT22;3236;51.022;6.818;2023-07-20T15:46:44;31.70;10.00
6407;DHT22;3236;51.022;6.818;2023-07-20T15:49:11;32.00;10.30
6407;DHT22;3236;51.022;6.818;2023-07-20T15:51:38;31.60;9.50
6407;DHT22;3236;51.022;6.818;2023-07-20T15:54:09;31.20;9.70
6407;DHT22;3236;51.022;6.818;2023-07-20T15:56:44;30.90;9.60
6407;DHT22;3236;51.022;6.818;2023-07-20T15:59:13;30.40;11.20
6407;DHT22;3236;51.022;6.818;2023-07-20T16:01:40;30.70;10.20
6407;DHT22;3236;51.022;6.818;2023-07-20T16:04:08;30.60;9.80
6407;DHT22;3236;51.022;6.818;2023-07-20T16:06:35;31.30;8.80
6407;DHT22;3236;51.022;6.818;2023-07-20T16:09:10;30.60;7.20
6407;DHT22;3236;51.022;6.818;2023-07-20T16:11:37;31.30;8.60
6407;DHT22;3236;51.022;6.818;2023-07-20T16:14:06;30.80;7.50
6407;DHT22;3236;51.022;6.818;2023-07-20T16:16:34;29.30;7.70
6407;DHT22;3236;51.022;6.818;2023-07-20T16:19:07;28.40;10.30
6407;DHT22;3236;51.022;6.818;2023-07-20T16:24:02;30.30;9.60
6407;DHT22;3236;51.022;6.818;2023-07-20T16:26:31;30.70;8.20
6407;DHT22;3236;51.022;6.818;2023-07-20T16:28:57;29.10;9.10
6407;DHT22;3236;51.022;6.818;2023-07-20T16:31:25;28.90;10.50
6407;DHT22;3236;51.022;6.818;2023-07-20T16:33:51;28.40;12.40
6407;DHT22;3236;51.022;6.818;2023-07-20T16:38:46;28.20;11.40
6407;DHT22;3236;51.022;6.818;2023-07-20T16:41:17;28.20;12.00
6407;DHT22;3236;51.022;6.818;2023-07-20T16:43:46;27.30;13.10
6407;DHT22;3236;51.022;6.818;2023-07-20T16:46:13;27.00;16.50
6407;DHT22;3236;51.022;6.818;2023-07-20T16:48:40;26.60;19.00
6407;DHT22;3236;51.022;6.818;2023-07-20T16:51:07;25.70;19.90
6407;DHT22;3236;51.022;6.818;2023-07-20T16:58:29;27.40;20.00
6407;DHT22;3236;51.022;6.818;2023-07-20T17:01:01;28.80;15.10
6407;DHT22;3236;51.022;6.818;2023-07-20T17:03:28;29.50;13.80
6407;DHT22;3236;51.022;6.818;2023-07-20T17:05:56;29.80;12.40
6407;DHT22;3236;51.022;6.818;2023-07-20T17:08:24;29.90;10.80
6407;DHT22;3236;51.022;6.818;2023-07-20T17:13:21;29.10;11.90
6407;DHT22;3236;51.022;6.818;2023-07-20T17:15:48;29.00;11.50
6407;DHT22;3236;51.022;6.818;2023-07-20T17:18:17;28.40;11.30
6407;DHT22;3236;51.022;6.818;2023-07-20T17:20:45;28.10;11.30
6407;DHT22;3236;51.022;6.818;2023-07-20T17:23:13;27.70;14.40
6407;DHT22;3236;51.022;6.818;2023-07-20T17:25:44;27.20;16.20
6407;DHT22;3236;51.022;6.818;2023-07-20T17:28:17;26.90;18.60
6407;DHT22;3236;51.022;6.818;2023-07-20T17:30:44;27.30;16.90
6407;DHT22;3236;51.022;6.818;2023-07-20T17:33:11;27.50;18.40
6407;DHT22;3236;51.022;6.818;2023-07-20T17:35:39;26.90;17.90
6407;DHT22;3236;51.022;6.818;2023-07-20T17:40:46;27.70;17.80
6407;DHT22;3236;51.022;6.818;2023-07-20T17:43:13;26.80;18.20
6407;DHT22;3236;51.022;6.818;2023-07-20T17:45:40;26.70;20.00
6407;DHT22;3236;51.022;6.818;2023-07-20T17:48:07;26.70;20.90
6407;DHT22;3236;51.022;6.818;2023-07-20T17:50:35;27.30;20.40
6407;DHT22;3236;51.022;6.818;2023-07-20T17:53:06;26.30;20.90
6407;DHT22;3236;51.022;6.818;2023-07-20T17:55:33;25.60;22.30
6407;DHT22;3236;51.022;6.818;2023-07-20T17:58:01;25.30;24.30
6407;DHT22;3236;51.022;6.818;2023-07-20T18:02:57;24.60;27.20
6407;DHT22;3236;51.022;6.818;2023-07-20T18:07:51;23.80;30.00
6407;DHT22;3236;51.022;6.818;2023-07-20T18:10:20;23.50;31.90
6407;DHT22;3236;51.022;6.818;2023-07-20T18:15:15;23.10;33.10
6407;DHT22;3236;51.022;6.818;2023-07-20T18:17:43;23.00;34.80
6407;DHT22;3236;51.022;6.818;2023-07-20T18:20:10;22.90;36.90
6407;DHT22;3236;51.022;6.818;2023-07-20T18:22:39;22.50;38.20
6407;DHT22;3236;51.022;6.818;2023-07-20T18:25:07;22.70;39.30
6407;DHT22;3236;51.022;6.818;2023-07-20T18:27:36;22.70;39.10
6407;DHT22;3236;51.022;6.818;2023-07-20T18:30:05;22.50;40.50
6407;DHT22;3236;51.022;6.818;2023-07-20T18:32:35;22.70;41.60
6407;DHT22;3236;51.022;6.818;2023-07-20T18:37:30;22.90;40.60
6407;DHT22;3236;51.022;6.818;2023-07-20T18:42:25;22.20;41.10
6407;DHT22;3236;51.022;6.818;2023-07-20T18:44:54;22.40;41.90
6407;DHT22;3236;51.022;6.818;2023-07-20T18:49:49;21.90;42.60
6407;DHT22;3236;51.022;6.818;2023-07-20T18:52:20;22.30;42.70
6407;DHT22;3236;51.022;6.818;2023-07-20T18:57:15;21.70;47.50
6407;DHT22;3236;51.022;6.818;2023-07-20T18:59:42;21.90;48.80
6407;DHT22;3236;51.022;6.818;2023-07-20T19:02:11;21.40;48.20
6407;DHT22;3236;51.022;6.818;2023-07-20T19:07:05;21.60;48.40
6407;DHT22;3236;51.022;6.818;2023-07-20T19:14:27;21.50;49.80
6407;DHT22;3236;51.022;6.818;2023-07-20T19:16:54;21.90;51.20
6407;DHT22;3236;51.022;6.818;2023-07-20T19:19:23;21.40;51.90
6407;DHT22;3236;51.022;6.818;2023-07-20T19:21:50;21.30;52.00
6407;DHT22;3236;51.022;6.818;2023-07-20T19:24:18;21.40;52.40
6407;DHT22;3236;51.022;6.818;2023-07-20T19:26:45;21.90;52.80
6407;DHT22;3236;51.022;6.818;2023-07-20T19:29:12;21.90;53.50
6407;DHT22;3236;51.022;6.818;2023-07-20T19:31:40;21.60;55.00
6407;DHT22;3236;51.022;6.818;2023-07-20T19:34:07;21.40;55.10
6407;DHT22;3236;51.022;6.818;2023-07-20T19:36:44;20.80;55.20
6407;DHT22;3236;51.022;6.818;2023-07-20T19:39:12;21.20;57.00
6407;DHT22;3236;51.022;6.818;2023-07-20T19:41:39;21.00;59.10
6407;DHT22;3236;51.022;6.818;2023-07-20T19:44:06;21.00;59.10
6407;DHT22;3236;51.022;6.818;2023-07-20T19:46:35;21.20;59.20
6407;DHT22;3236;51.022;6.818;2023-07-20T19:49:02;21.20;62.20
6407;DHT22;3236;51.022;6.818;2023-07-20T19:51:29;20.80;63.80
6407;DHT22;3236;51.022;6.818;2023-07-20T19:53:57;20.60;65.00
6407;DHT22;3236;51.022;6.818;2023-07-20T19:56:24;20.50;65.70
6407;DHT22;3236;51.022;6.818;2023-07-20T19:58:51;20.70;66.90
6407;DHT22;3236;51.022;6.818;2023-07-20T20:01:18;20.70;67.20
6407;DHT22;3236;51.022;6.818;2023-07-20T20:03:46;20.30;67.90
6407;DHT22;3236;51.022;6.818;2023-07-20T20:06:16;21.20;68.70
6407;DHT22;3236;51.022;6.818;2023-07-20T20:08:43;20.60;69.10
6407;DHT22;3236;51.022;6.818;2023-07-20T20:11:11;20.50;69.30
6407;DHT22;3236;51.022;6.818;2023-07-20T20:13:38;20.80;69.60
6407;DHT22;3236;51.022;6.818;2023-07-20T20:16:06;20.70;70.70
6407;DHT22;3236;51.022;6.818;2023-07-20T20:23:30;20.60;70.50
6407;DHT22;3236;51.022;6.818;2023-07-20T20:25:57;20.30;75.50
6407;DHT22;3236;51.022;6.818;2023-07-20T20:28:30;20.60;77.20
6407;DHT22;3236;51.022;6.818;2023-07-20T20:30:57;20.60;78.80
6407;DHT22;3236;51.022;6.818;2023-07-20T20:33:26;20.90;81.90
6407;DHT22;3236;51.022;6.818;2023-07-20T20:35:53;20.80;85.20
6407;DHT22;3236;51.022;6.818;2023-07-20T20:38:24;20.60;86.40
6407;DHT22;3236;51.022;6.818;2023-07-20T20:40:58;20.60;86.90
6407;DHT22;3236;51.022;6.818;2023-07-20T20:43:27;20.40;87.40
6407;DHT22;3236;51.022;6.818;2023-07-20T20:46:00;20.30;90.70
6407;DHT22;3236;51.022;6.818;2023-07-20T20:48:28;19.50;97.40
6407;DHT22;3236;51.022;6.818;2023-07-20T20:53:22;18.10;99.90
6407;DHT22;3236;51.022;6.818;2023-07-20T20:55:50;17.60;99.90
6407;DHT22;3236;51.022;6.818;2023-07-20T21:00:45;17.50;99.90
6407;DHT22;3236;51.022;6.818;2023-07-20T21:03:13;17.00;99.90
6407;DHT22;3236;51.022;6.818;2023-07-20T21:08:16;16.70;99.90
6407;DHT22;3236;51.022;6.818;2023-07-20T21:10:44;16.80;99.90
6407;DHT22;3236;51.022;6.818;2023-07-20T21:13:12;16.90;99.90
6407;DHT22;3236;51.022;6.818;2023-07-20T21:20:40;16.70;99.90